Atlantic, PA

12:43 PM EDT on August 30, 2014 (GMT -0400)
Port Meadville | Change Station
CLOSE
Current Station
Airport
Location: Meadville,
Elevation: 1401 ft
Nearby Weather Stations

Elev 1401 ft 41.63 °N, 80.21 °W | Updated 50 minutes ago

Clear
Clear
79 °F
Feels Like 79 °F
N
9
Wind Variable Wind from South

Today
High -- | Low -- °F
--% Chance of Precip.
Yesterday
High -- | Low -- °F
Precip. -- in
6:45 AM 7:57 PM
Waxing Crescent, 23% visible
Pressure 30.07 in
Visibility 10.0 miles
Clouds Clear
Dew Point 67 °F
Humidity 66%
Rainfall 0.00 in
Snow Depth Not available.
UV 8 out of 12
Pollen 10.60 out of 12
Air Quality Not available.
Flu Activity Not available.
METAR KGKJ 301553Z AUTO 19008KT 10SM CLR 26/19 A3010 RMK AO2 SLP182 T02610194 TSNO

More Conditions Fewer Conditions

Pressure 30.07 in
Visibility 10.0 miles
Clouds Clear
Dew Point 67 °F
Humidity 66%
Rainfall 0.00 in
Snow Depth Not available.
UV 8 out of 12
Pollen 10.60 out of 12
Air Quality Not available.
Flu Activity Not available.
METAR KGKJ 301553Z AUTO 19008KT 10SM CLR 26/19 A3010 RMK AO2 SLP182 T02610194 TSNO

More Conditions Fewer Conditions

10-Day Weather Forecast

Almanac

Astronomy

Aug. 30, 2014 Rise Set
Actual Time 6:45 AM EDT 7:57 PM EDT
Civil Twilight 6:16 AM EDT 8:26 PM EDT
Nautical Twilight 5:42 AM EDT 9:00 PM EDT
Astronomical Twilight 5:06 AM EDT 9:36 PM EDT
Moon 11:35 AM EDT 10:26 PM EDT
Length of Visible Light 14h 09m
Length of Day
13h 12m
Tomorrow will be 2m 40s shorter.
Waxing Crescent, 23% of the Moon is Illuminated
Today
Waxing Crescent
Sep 2
First Quarter
Sep 8
Full
Sep 15
Last Quarter
Sep 24
New

Today's Extremes

State Highs State Lows

Community

WunderPhotos

Upload Photos

1,748,562 photos uploaded!

WunderBlogs® & News

Nearby

Snow Depth

Station Depth Elevation
No new snow has been reported.

Earthquake Activity

City Distance Mag. Time & Date
No recent earthquake activity has been reported nearby.
Minimum magnitude displayed is 2.5.

Coastal Water Temperatures

Place Temperature
No Stations Reporting

Nearby Weather Stations